x

Port Stanley (45132) Wave Buoy

8:00pm - Thu 27th Aug 2015 All times are CDT. -5 hours from GMT.

  • Sig Wave height 0.7ft
  • Peak Period 3s
  • Wind
    9mph, 11mph gusts
  • Sea Temp 71°f
  • Air Temp 66°f
  • Sea Pressure 1021.4mb
  • Port Stanley
  • Port Stanley

More Historic Weather Station data

Upgrade to MSW Pro to gain access to the past 30 days of data for over 8000 Wavebouys and Weather Stations around the globe.

Join Pro

Comparision Forecast

View Surf forecast
   
Thu 08/27 8:00pm 0.7ft 3s 9 11 mph 1021.4mb 71f 66f
7:00pm 0.7ft 3s 9 13 mph 1021.1mb 72f 66f
6:00pm 0.7ft 2s 11 16 mph 1021.1mb 72f 66f
5:00pm 0.3ft 2s 11 13 mph 1021.1mb 72f 65f
4:00pm 0.3ft 2s 7 9 mph 1020.7mb 72f 66f
3:00pm 0.3ft 2s 7 9 mph 1020.6mb 72f 65f
2:00pm 0.3ft 2s 9 11 mph 1021.2mb 72f 65f
1:00pm 0.7ft 2s 7 9 mph 1021.8mb 72f 65f
12:00pm 0.7ft 3s 9 11 mph 1022.1mb 71f 64f
11:00am 0.7ft 2s 9 11 mph 1021.9mb 71f 64f
10:00am 0.7ft 3s 11 13 mph 1022.1mb 71f 63f
9:00am 1ft 3s 13 16 mph 1021.6mb 71f 62f
8:00am 1ft 3s 13 18 mph 1021.2mb 71f 62f
7:00am 1ft 3s 13 16 mph 1021.2mb 71f 62f
6:00am 1.3ft 3s 16 18 mph 1020.8mb 71f 62f
5:00am 1ft 3s 13 16 mph 1020.2mb 71f 63f
4:00am 1ft 3s 11 13 mph 1020mb 71f 63f
3:00am 1ft 3s 11 13 mph 1019.5mb 71f 63f
2:00am 1ft 3s 13 16 mph 1019.5mb 71f 63f
1:00am 1ft 3s 13 16 mph 1019.4mb 71f 64f
12:00am 1ft 3s 13 18 mph 1019.4mb 71f 64f
Wed 08/26 11:00pm 1ft 3s 13 16 mph 1019.3mb 71f 64f
10:00pm 1ft 2s 11 16 mph 1019.7mb 71f 63f
9:00pm 1ft 3s 11 16 mph 1019.4mb 71f 64f
8:00pm 1ft 3s 11 13 mph 1019mb 71f 64f
7:00pm 1ft 3s 13 18 mph 1018.5mb 71f 65f
6:00pm 0.7ft 3s 13 16 mph 1018.3mb 71f 65f
5:00pm 0.7ft 3s 11 16 mph 1018.3mb 71f 65f
4:00pm 1ft 3s 9 13 mph 1018.2mb 71f 65f
3:00pm 1ft 3s 13 16 mph 1018.1mb 71f 65f
2:00pm  -   -  13
mph
- - 64f
1:00pm 1ft 3s 16 20 mph 1018.2mb 72f 65f
12:00pm 1ft 3s 13 16 mph 1018.2mb 72f 64f
11:00am 1ft 4s 11 16 mph 1018.3mb 72f 63f
10:00am 1.3ft 3s 13 16 mph 1018.2mb 71f 62f
9:00am 1.3ft 4s 13 16 mph 1017.9mb 71f 62f
8:00am 1.3ft 4s 13 16 mph 1017.6mb 71f 62f
7:00am 1.3ft 3s 13 18 mph 1017.3mb 71f 61f
6:00am 1.3ft 4s 13 18 mph 1016.7mb 71f 61f
5:00am 1.3ft 3s 13 18 mph 1016mb 71f 61f
4:00am 1.3ft 4s 13 18 mph 1015.6mb 71f 61f
3:00am 1.3ft 4s 16 18 mph 1015.4mb 71f 61f
2:00am 1.3ft 3s 13 16 mph 1015.3mb 71f 61f
1:00am 1.6ft 4s 13 16 mph 1015.5mb 71f 61f
12:00am 1.6ft 4s 16 18 mph 1015.5mb 71f 63f
Tue 08/25 11:00pm 1.6ft 4s 16 20 mph 1015.4mb 71f 63f
10:00pm 1.6ft 4s 13 16 mph 1015.6mb 71f 63f
9:00pm 2ft 4s 13 18 mph 1015.3mb 71f 64f
8:00pm 2ft 4s 16 18 mph 1014.8mb 71f 64f
7:00pm 2ft 4s 13 18 mph 1014.2mb 72f 64f
6:00pm 2ft 4s 18 22 mph 1014.2mb 72f 64f
5:00pm 2ft 4s 18 22 mph 1014mb 72f 65f
4:00pm 1.6ft 4s 16 20 mph 1013.7mb 72f 65f
3:00pm 1.3ft 4s 13 18 mph 1013.5mb 72f 65f
2:00pm 1.3ft 3s 11 16 mph 1013.7mb 72f 64f
1:00pm  -   -  13
mph
1013.7mb 72f 63f
12:00pm  -   -  13
mph
- - 63f
11:00am 1.3ft 3s 13 18 mph 1013.7mb 72f 63f
10:00am 1.3ft 3s 13 18 mph 1013.7mb 72f 62f
9:00am 1.3ft 4s 13 18 mph 1013.3mb 72f 62f
8:00am 1.6ft 4s 13 16 mph 1012.9mb 72f 62f
7:00am 1.6ft 5s 18 22 mph 1012.7mb 71f 62f
6:00am 2ft 5s 16 18 mph 1012.4mb 72f 62f
5:00am 2ft 4s 13 18 mph 1011.7mb 72f 62f
4:00am 2.5ft 3s 18 22 mph 1011.5mb 72f 62f
3:00am 2.5ft 4s 18 22 mph 1011.2mb 72f 62f
2:00am 2.5ft 5s 16 20 mph 1011.2mb 72f 63f
1:00am 2.5ft 3s 18 20 mph 1011.3mb 72f 63f
12:00am 2.5ft 5s 22 25 mph 1011.3mb 72f 64f
Mon 08/24 11:00pm 3ft 6s 18 20 mph 1011.6mb 72f 65f
10:00pm 3.5ft 6s 18 20 mph 1011.3mb 72f 68f
9:00pm 4.5ft 6s 20
mph
1010.8mb 72f 71f
8:00pm 5ft 6s 25 31 mph 1010.2mb 72f 72f
7:00pm 4.5ft 5s 25 29 mph 1010mb 73f 71f
6:00pm 4.5ft 6s 25 29 mph 1010.1mb 73f 71f
5:00pm 5ft 6s 25 29 mph 1010.2mb 73f 71f
4:00pm 4.5ft 5s 22 27 mph 1010.2mb 73f 70f
3:00pm 4.5ft 5s 25 29 mph 1010.3mb 73f 70f
2:00pm 4.5ft 5s 25 29 mph 1010.3mb 73f 70f
1:00pm 3ft 4s 27 31 mph 1010.3mb 73f 70f
12:00pm 1.6ft 4s 22 27 mph 1010.8mb 73f 70f
11:00am 1.6ft 4s 7 11 mph 1011.5mb 73f 68f
10:00am 1.6ft 4s 13 16 mph 1011.8mb 73f 67f
9:00am 1.6ft 4s 13 16 mph 1011.9mb 73f 67f
8:00am 2ft 5s 16 20 mph 1011.7mb 73f 67f
7:00am 2.5ft 4s 16 20 mph 1011.5mb 73f 67f
6:00am 2.5ft 4s 20 22 mph 1011mb 73f 67f
5:00am 2.5ft 4s 20 22 mph 1010.6mb 73f 66f
4:00am 2.5ft 4s 20 22 mph 1010.4mb 73f 65f
3:00am 3ft 4s 22 27 mph 1009.9mb 73f 66f